Time;durP1;ratioP1;P1;durP2;ratioP2;P2;SDS_P1;SDS_P2;PMS_P1;PMS_P2;Temp;Humidity;BMP_temperature;BMP_pressure;BME280_temperature;BME280_humidity;BME280_pressure;Samples;Min_cycle;Max_cycle;Signal;HPM_P1;HPM_P2
2020/12/27 00:00:44;;;;;;;45.47;27.33;;;;;;;-4.11;77.46;96429.31;5098743;28;20046;-85
2020/12/27 00:03:09;;;;;;;41.97;23.50;;;;;;;-4.33;78.72;96401.72;5098679;28;20032;-86
2020/12/27 00:05:35;;;;;;;37.72;21.90;;;;;;;-4.43;77.63;96405.00;5099768;28;20031;-86
2020/12/27 00:08:00;;;;;;;39.97;24.65;;;;;;;-4.34;78.58;96427.50;5098712;28;20024;-85
2020/12/27 00:10:26;;;;;;;48.47;27.92;;;;;;;-4.23;79.02;96454.16;5098642;28;20027;-85
2020/12/27 00:12:54;;;;;;;52.10;28.38;;;;;;;-4.12;78.93;96480.84;5098512;28;20031;-86
2020/12/27 00:15:23;;;;;;;51.13;27.83;;;;;;;-4.17;79.32;96476.59;5105059;28;20343;-86
2020/12/27 00:17:49;;;;;;;49.35;26.73;;;;;;;-4.51;79.83;96417.41;5078269;28;20025;-86
2020/12/27 00:20:14;;;;;;;46.75;25.50;;;;;;;-4.52;79.69;96408.69;5079208;28;20072;-86
2020/12/27 00:22:40;;;;;;;42.00;25.13;;;;;;;-4.29;79.74;96442.34;5079202;28;20074;-86
2020/12/27 00:25:06;;;;;;;43.67;24.40;;;;;;;-4.84;78.24;96379.06;5079179;28;20385;-86
2020/12/27 00:27:31;;;;;;;39.50;22.70;;;;;;;-4.63;80.16;96397.19;5092880;28;20024;-86
2020/12/27 00:29:57;;;;;;;39.83;22.85;;;;;;;-4.68;79.25;96386.88;5095640;28;20031;-86
2020/12/27 00:32:29;;;;;;;35.13;22.02;;;;;;;-4.54;80.13;96386.28;5098008;28;20020;-86
2020/12/27 00:34:55;;;;;;;36.72;21.83;;;;;;;-4.16;80.32;96440.22;5097959;28;20024;-87
2020/12/27 00:37:21;;;;;;;35.33;20.77;;;;;;;-4.48;79.70;96406.84;5099148;28;20427;-86
2020/12/27 00:39:48;;;;;;;35.97;20.98;;;;;;;-4.66;78.32;96379.31;5099146;28;20024;-86
2020/12/27 00:42:14;;;;;;;37.00;22.40;;;;;;;-4.75;79.45;96378.81;5099126;28;20028;-86
2020/12/27 00:44:39;;;;;;;35.28;20.88;;;;;;;-4.56;79.33;96399.16;5097953;28;20408;-86
2020/12/27 00:47:05;;;;;;;30.15;19.58;;;;;;;-4.77;79.48;96359.84;5097936;28;20100;-86
2020/12/27 00:49:30;;;;;;;29.85;19.23;;;;;;;-4.70;79.44;96377.75;5097893;28;20115;-86
2020/12/27 00:51:55;;;;;;;31.42;19.20;;;;;;;-4.69;78.84;96387.22;5097795;28;20012;-86
2020/12/27 00:54:21;;;;;;;34.22;20.38;;;;;;;-4.68;78.37;96391.41;5098863;28;20039;-86
2020/12/27 00:56:50;;;;;;;33.53;19.20;;;;;;;-4.41;78.34;96439.91;5098473;28;20024;-86
2020/12/27 00:59:16;;;;;;;29.73;19.40;;;;;;;-4.39;80.20;96438.41;5098739;28;20028;-86
2020/12/27 01:01:42;;;;;;;28.13;18.15;;;;;;;-4.78;77.12;96398.84;5098547;28;20058;-86
2020/12/27 01:04:07;;;;;;;27.77;17.98;;;;;;;-5.01;77.86;96363.66;5097534;28;20024;-86
2020/12/27 01:06:34;;;;;;;27.10;17.98;;;;;;;-5.07;79.81;96355.25;5097554;28;20373;-86
2020/12/27 01:09:00;;;;;;;26.80;17.60;;;;;;;-4.78;79.87;96403.38;5097431;28;20043;-86
2020/12/27 01:11:26;;;;;;;28.35;17.15;;;;;;;-5.03;79.43;96357.97;5097399;28;20105;-86
2020/12/27 01:13:51;;;;;;;29.52;18.25;;;;;;;-4.83;80.25;96380.59;5097408;28;20114;-86
2020/12/27 01:16:19;;;;;;;25.85;16.92;;;;;;;-5.05;78.90;96360.22;5098423;28;20047;-86
2020/12/27 01:18:45;;;;;;;27.50;17.73;;;;;;;-4.92;79.00;96372.13;5097620;28;20028;-86
2020/12/27 01:21:10;;;;;;;28.42;18.00;;;;;;;-4.91;79.26;96360.41;5097160;28;20320;-86
2020/12/27 01:23:35;;;;;;;29.50;19.30;;;;;;;-4.87;80.48;96397.56;5098265;28;20024;-86
2020/12/27 01:26:01;;;;;;;31.90;20.30;;;;;;;-5.14;79.82;96344.56;5097107;28;20114;-87
2020/12/27 01:28:26;;;;;;;34.70;20.80;;;;;;;-4.65;78.32;96417.19;5098178;28;20024;-86
2020/12/27 01:30:52;;;;;;;29.90;18.95;;;;;;;-4.96;79.57;96359.94;5084451;28;20024;-86
2020/12/27 01:33:17;;;;;;;27.75;16.88;;;;;;;-5.05;78.48;96363.63;5077788;28;20451;-86
2020/12/27 01:35:45;;;;;;;29.70;17.08;;;;;;;-4.66;78.93;96424.38;5076516;28;20048;-86
2020/12/27 01:38:10;;;;;;;27.50;16.73;;;;;;;-5.11;77.90;96373.00;5077605;28;20024;-86
2020/12/27 01:40:36;;;;;;;24.83;16.05;;;;;;;-5.33;77.86;96363.16;5076346;28;20077;-88
2020/12/27 01:43:02;;;;;;;25.85;16.63;;;;;;;-5.59;79.00;96316.22;5077597;28;20444;-88
2020/12/27 01:45:28;;;;;;;25.55;16.23;;;;;;;-5.24;78.84;96357.63;5078169;28;20414;-89
2020/12/27 01:47:53;;;;;;;26.80;16.52;;;;;;;-4.89;79.75;96400.56;5076037;28;20060;-89
2020/12/27 01:50:20;;;;;;;31.30;18.35;;;;;;;-4.74;81.13;96404.19;5076622;28;20074;-89
2020/12/27 01:52:47;;;;;;;32.40;19.85;;;;;;;-5.31;78.90;96323.84;5077556;28;20107;-88
2020/12/27 01:55:13;;;;;;;33.13;19.02;;;;;;;-4.80;79.46;96416.97;5077406;28;20028;-89
2020/12/27 01:57:57;;;;;;;30.45;18.50;;;;;;;-4.66;79.09;96413.03;5076378;28;20023;-89
2020/12/27 02:00:23;;;;;;;27.48;16.85;;;;;;;-5.06;80.15;96342.75;5076381;28;20107;-88
2020/12/27 02:02:49;;;;;;;26.60;16.35;;;;;;;-5.18;78.91;96324.41;5076174;28;20162;-88
2020/12/27 02:05:14;;;;;;;22.95;14.77;;;;;;;-5.06;77.86;96340.91;5076147;28;20032;-89
2020/12/27 02:07:43;;;;;;;23.83;14.95;;;;;;;-5.50;79.78;96279.66;5076195;28;20020;-89
2020/12/27 02:10:09;;;;;;;24.42;15.27;;;;;;;-5.11;78.25;96343.84;5075337;28;20039;-89
2020/12/27 02:12:34;;;;;;;23.55;14.43;;;;;;;-5.46;79.47;96287.69;5076080;28;20317;-89
2020/12/27 02:14:59;;;;;;;22.92;14.15;;;;;;;-5.18;79.51;96304.00;5075982;28;20421;-88
2020/12/27 02:17:25;;;;;;;22.05;13.82;;;;;;;-5.09;79.19;96323.06;5075940;28;20028;-88
2020/12/27 02:19:50;;;;;;;25.63;15.25;;;;;;;-5.24;79.05;96302.78;5077029;28;20100;-89
2020/12/27 02:22:16;;;;;;;27.27;15.93;;;;;;;-5.27;79.65;96298.97;5077515;28;20111;-89
2020/12/27 02:24:41;;;;;;;24.38;14.43;;;;;;;-4.99;78.65;96352.72;5075878;28;20032;-88
2020/12/27 02:27:07;;;;;;;24.35;14.70;;;;;;;-5.18;77.95;96311.19;5075844;28;20032;-89
2020/12/27 02:29:34;;;;;;;23.80;14.85;;;;;;;-4.85;78.81;96360.84;5091079;28;20107;-89
2020/12/27 02:32:00;;;;;;;23.27;14.73;;;;;;;-5.44;78.23;96280.91;5096126;28;20020;-89
2020/12/27 02:34:26;;;;;;;22.08;14.07;;;;;;;-4.92;78.58;96366.06;5096001;28;20053;-89
2020/12/27 02:36:52;;;;;;;22.30;14.13;;;;;;;-5.10;78.94;96345.38;5096972;28;20048;-88
2020/12/27 02:39:19;;;;;;;19.15;12.70;;;;;;;-5.32;78.96;96317.03;5096812;28;20373;-89
2020/12/27 02:41:48;;;;;;;19.88;13.32;;;;;;;-5.56;78.10;96302.28;5096064;28;20073;-89
2020/12/27 02:44:14;;;;;;;19.33;12.77;;;;;;;-5.20;78.71;96351.28;5095881;28;20328;-88
2020/12/27 02:46:39;;;;;;;19.58;12.82;;;;;;;-5.50;79.72;96277.03;5095821;28;20293;-89
2020/12/27 02:49:05;;;;;;;21.13;12.65;;;;;;;-5.68;79.72;96231.00;5095859;28;20024;-89
2020/12/27 02:51:30;;;;;;;20.05;12.93;;;;;;;-5.12;80.05;96299.16;5096925;28;20020;-89
2020/12/27 02:53:56;;;;;;;21.42;13.20;;;;;;;-5.27;78.24;96261.13;5096921;28;20363;-89
2020/12/27 02:56:23;;;;;;;25.60;14.10;;;;;;;-4.93;77.41;96311.53;5097391;28;20412;-89
2020/12/27 02:58:50;;;;;;;22.77;13.77;;;;;;;-5.20;78.13;96292.22;5095781;28;20030;-89
2020/12/27 03:01:17;;;;;;;22.55;13.93;;;;;;;-5.32;77.54;96315.16;5096737;28;20028;-88
2020/12/27 03:03:43;;;;;;;19.02;12.93;;;;;;;-5.69;78.50;96255.94;5095761;28;20078;-88
2020/12/27 03:06:09;;;;;;;23.52;14.15;;;;;;;-5.72;77.15;96243.41;5095653;28;20412;-89
2020/12/27 03:08:34;;;;;;;20.55;13.15;;;;;;;-5.67;78.35;96256.34;5096745;28;20039;-88
2020/12/27 03:11:00;;;;;;;31.50;17.20;;;;;;;-5.80;78.08;96226.66;5095726;28;20028;-89
2020/12/27 03:13:27;;;;;;;28.45;15.85;;;;;;;-5.44;78.71;96272.94;5095634;28;20388;-89
2020/12/27 03:15:54;;;;;;;26.08;15.77;;;;;;;-4.98;80.21;96302.00;5095609;28;20027;-88
2020/12/27 03:18:20;;;;;;;26.90;16.35;;;;;;;-5.27;79.08;96255.81;5095546;28;20028;-89
2020/12/27 03:20:46;;;;;;;25.35;16.10;;;;;;;-5.43;77.80;96224.19;5098250;28;20405;-88
2020/12/27 03:23:11;;;;;;;32.83;18.80;;;;;;;-5.45;78.42;96244.19;5100500;28;20042;-88
2020/12/27 03:25:36;;;;;;;26.75;16.40;;;;;;;-5.48;77.60;96247.56;5099599;28;20054;-89
2020/12/27 03:28:02;;;;;;;27.80;17.27;;;;;;;-5.76;77.02;96234.63;5100506;28;20419;-89
2020/12/27 03:30:28;;;;;;;30.25;17.70;;;;;;;-5.61;77.94;96241.69;5099441;28;20031;-89
2020/12/27 03:32:53;;;;;;;26.17;16.75;;;;;;;-5.77;78.02;96212.69;5099418;28;20031;-89
2020/12/27 03:35:19;;;;;;;26.17;15.48;;;;;;;-5.51;78.64;96250.91;5100221;28;20055;-89
2020/12/27 03:37:44;;;;;;;25.02;16.10;;;;;;;-5.58;79.15;96222.47;5100463;28;20427;-88
2020/12/27 03:40:10;;;;;;;23.70;14.52;;;;;;;-5.60;78.19;96198.97;5100835;28;20031;-88
2020/12/27 03:42:35;;;;;;;19.92;13.25;;;;;;;-5.35;76.72;96267.41;5100208;28;20316;-88
2020/12/27 03:45:03;;;;;;;22.75;14.80;;;;;;;-5.69;77.77;96218.88;5099200;28;20020;-89
2020/12/27 03:47:28;;;;;;;23.40;14.55;;;;;;;-5.83;78.72;96214.13;5099232;28;20024;-89
2020/12/27 03:49:53;;;;;;;23.08;14.27;;;;;;;-5.61;79.27;96242.44;5100314;28;20111;-89
2020/12/27 03:52:19;;;;;;;23.75;14.65;;;;;;;-5.88;78.84;96195.91;5100169;28;20050;-87
2020/12/27 03:54:44;;;;;;;21.55;14.02;;;;;;;-6.02;77.83;96164.72;5100071;28;20024;-89
2020/12/27 03:57:10;;;;;;;26.52;15.25;;;;;;;-5.78;77.64;96226.28;5098900;28;20035;-89
2020/12/27 03:59:35;;;;;;;24.55;16.15;;;;;;;-5.75;77.07;96222.94;5098989;28;20027;-89
2020/12/27 04:02:01;;;;;;;24.40;14.98;;;;;;;-6.01;77.73;96200.66;5099958;28;20063;-89
2020/12/27 04:04:26;;;;;;;25.20;15.80;;;;;;;-6.02;78.36;96203.63;5098845;28;20024;-89
2020/12/27 04:06:52;;;;;;;24.95;15.68;;;;;;;-5.86;77.90;96225.41;5098707;28;20039;-88
2020/12/27 04:09:18;;;;;;;28.70;15.80;;;;;;;-6.07;80.25;96189.59;5098743;28;20193;-89
2020/12/27 04:11:43;;;;;;;25.25;15.20;;;;;;;-5.67;79.34;96243.09;5098658;28;20533;-89
2020/12/27 04:14:09;;;;;;;23.65;15.68;;;;;;;-5.42;78.90;96277.91;5099683;28;20427;-89
2020/12/27 04:16:34;;;;;;;24.85;14.57;;;;;;;-5.47;79.18;96281.63;5099644;28;20051;-88
2020/12/27 04:19:00;;;;;;;25.00;14.13;;;;;;;-5.78;79.48;96205.13;5115542;28;20027;-89
2020/12/27 04:21:25;;;;;;;19.33;12.70;;;;;;;-5.44;78.86;96232.47;5099956;28;20020;-89
2020/12/27 04:23:51;;;;;;;24.50;13.45;;;;;;;-5.75;77.00;96221.06;5098569;28;20028;-89
2020/12/27 04:26:17;;;;;;;23.70;14.18;;;;;;;-6.06;77.44;96182.44;5098435;28;20086;-89
2020/12/27 04:28:42;;;;;;;22.73;13.65;;;;;;;-6.05;76.54;96194.53;5098428;28;20109;-89
2020/12/27 04:31:20;;;;;;;21.45;13.40;;;;;;;-6.31;77.47;96162.75;5098431;28;20023;-89
2020/12/27 04:33:49;;;;;;;23.73;13.93;;;;;;;-6.14;78.04;96184.19;5097881;28;20060;-89
2020/12/27 04:36:18;;;;;;;21.70;12.63;;;;;;;-6.40;75.96;96155.78;5097986;28;20048;-88
2020/12/27 04:38:44;;;;;;;20.58;12.63;;;;;;;-6.23;76.96;96175.72;5099339;28;20038;-89
2020/12/27 04:41:16;;;;;;;23.20;13.57;;;;;;;-5.90;79.33;96192.84;5098015;28;20415;-88
2020/12/27 04:43:42;;;;;;;20.27;13.20;;;;;;;-6.30;77.80;96146.50;5099196;28;20323;-88
2020/12/27 04:46:10;;;;;;;19.42;12.73;;;;;;;-5.88;78.30;96209.13;5080979;28;20039;-89
2020/12/27 04:48:37;;;;;;;21.65;13.35;;;;;;;-5.56;78.49;96258.03;5077831;28;20027;-89
2020/12/27 04:51:04;;;;;;;18.70;13.25;;;;;;;-5.49;78.39;96253.97;5078757;28;20027;-88
2020/12/27 04:53:33;;;;;;;22.52;12.95;;;;;;;-5.79;77.84;96199.06;5077657;28;20332;-89
2020/12/27 04:56:01;;;;;;;23.98;14.25;;;;;;;-6.06;77.45;96174.50;5078608;28;20035;-89
2020/12/27 04:58:26;;;;;;;22.83;13.80;;;;;;;-5.60;78.34;96230.72;5077498;28;20028;-88
2020/12/27 05:00:51;;;;;;;19.35;12.27;;;;;;;-5.96;76.79;96195.06;5077512;28;20369;-89
2020/12/27 05:03:17;;;;;;;18.38;12.60;;;;;;;-5.93;78.95;96169.78;5077386;28;20417;-89
2020/12/27 05:05:43;;;;;;;19.38;12.32;;;;;;;-6.17;77.28;96150.53;5077393;28;20031;-88
2020/12/27 05:08:09;;;;;;;18.33;12.77;;;;;;;-5.42;77.44;96257.50;5077347;28;20081;-88
2020/12/27 05:10:44;;;;;;;20.65;12.38;;;;;;;-5.42;77.59;96246.91;5077287;28;20115;-89
2020/12/27 05:13:11;;;;;;;19.45;11.77;;;;;;;-5.45;77.42;96236.25;5078319;28;20054;-89
2020/12/27 05:15:37;;;;;;;18.02;11.32;;;;;;;-5.80;77.54;96197.56;5092444;28;20434;-89
2020/12/27 05:18:08;;;;;;;15.23;10.55;;;;;;;-5.86;79.22;96146.03;5114399;28;20035;-89
2020/12/27 05:20:34;;;;;;;17.45;11.50;;;;;;;-5.97;77.89;96135.31;5097317;28;20508;-88
2020/12/27 05:23:09;;;;;;;18.33;11.85;;;;;;;-5.93;78.76;96148.59;5097533;28;20028;-88
2020/12/27 05:25:40;;;;;;;18.65;11.90;;;;;;;-5.49;77.63;96235.44;5098405;28;20027;-88
2020/12/27 05:28:08;;;;;;;18.63;12.43;;;;;;;-5.88;77.72;96180.78;5097298;28;20020;-89
2020/12/27 05:30:34;;;;;;;19.58;12.63;;;;;;;-5.96;77.67;96168.63;5097184;28;20032;-89
2020/12/27 05:33:00;;;;;;;22.45;13.05;;;;;;;-5.62;76.68;96235.63;5097072;28;20024;-90
2020/12/27 05:35:26;;;;;;;21.15;13.10;;;;;;;-5.56;77.90;96236.84;5097966;28;20104;-89
2020/12/27 05:37:53;;;;;;;20.00;12.65;;;;;;;-6.20;77.16;96174.25;5098087;28;20107;-89
2020/12/27 05:40:19;;;;;;;18.50;12.23;;;;;;;-6.29;78.98;96155.22;5097980;28;20023;-88
2020/12/27 05:42:45;;;;;;;17.63;11.85;;;;;;;-6.13;77.47;96166.44;5096884;28;20027;-89
2020/12/27 05:45:15;;;;;;;19.05;12.20;;;;;;;-6.25;77.22;96151.50;5082967;28;20028;-89
2020/12/27 05:47:43;;;;;;;20.35;13.05;;;;;;;-6.09;78.58;96170.66;5077971;28;20032;-89
2020/12/27 05:50:17;;;;;;;19.83;13.18;;;;;;;-5.67;77.13;96220.03;5093394;28;20028;-88
2020/12/27 05:52:48;;;;;;;27.65;16.58;;;;;;;-6.24;77.48;96142.44;5076529;28;20328;-88
2020/12/27 05:55:22;;;;;;;28.98;16.02;;;;;;;-6.28;77.65;96135.56;5077492;28;20032;-88
2020/12/27 05:57:53;;;;;;;25.85;15.77;;;;;;;-5.71;78.08;96216.56;5077595;28;20021;-89
2020/12/27 06:00:23;;;;;;;28.02;14.30;;;;;;;-6.21;78.58;96136.47;5092374;28;20483;-89
2020/12/27 06:02:59;;;;;;;21.48;14.35;;;;;;;-5.66;77.88;96218.91;5097554;28;20056;-89
2020/12/27 06:05:58;;;;;;;22.23;13.45;;;;;;;-5.59;78.35;96210.34;5097616;28;20028;-88
2020/12/27 06:08:30;;;;;;;18.05;11.25;;;;;;;-5.67;77.15;96190.94;5097041;28;20024;-89
2020/12/27 06:11:16;;;;;;;17.75;12.20;;;;;;;-5.71;76.96;96207.88;5096337;28;20039;-89
2020/12/27 06:14:16;;;;;;;17.05;10.98;;;;;;;-5.87;78.18;96169.06;5082240;28;20332;-88
2020/12/27 06:16:48;;;;;;;14.77;10.25;;;;;;;-5.70;77.99;96204.09;5082577;28;20039;-89
2020/12/27 06:19:23;;;;;;;16.75;10.27;;;;;;;-5.73;76.97;96199.53;5096275;28;20034;-89
2020/12/27 06:22:05;;;;;;;15.73;9.52;;;;;;;-5.45;79.12;96189.34;5097221;28;20073;-89
2020/12/27 06:24:32;;;;;;;14.38;9.90;;;;;;;-6.24;76.81;96099.38;5096360;28;20111;-88
2020/12/27 06:26:58;;;;;;;12.77;9.35;;;;;;;-5.96;77.88;96150.09;5096141;28;20047;-89
2020/12/27 06:29:33;;;;;;;16.13;10.13;;;;;;;-6.07;78.30;96125.38;5096186;28;20031;-89
2020/12/27 06:32:01;;;;;;;12.18;8.32;;;;;;;-5.64;76.73;96187.59;5097266;28;20077;-89
2020/12/27 06:34:27;;;;;;;15.00;10.20;;;;;;;-5.98;77.64;96139.09;5096033;28;20336;-89
2020/12/27 06:36:52;;;;;;;20.33;12.95;;;;;;;-5.91;78.74;96133.88;5095867;28;20047;-89
2020/12/27 06:39:29;;;;;;;39.35;19.00;;;;;;;-5.44;78.49;96180.28;5095904;28;20023;-89
2020/12/27 06:42:10;;;;;;;33.70;20.08;;;;;;;-5.51;76.97;96176.78;5095850;28;20384;-88
2020/12/27 06:44:47;;;;;;;38.60;19.80;;;;;;;-6.37;76.56;96086.34;5097014;28;20032;-89
2020/12/27 06:47:15;;;;;;;29.17;16.83;;;;;;;-5.71;76.62;96173.47;5096029;28;20420;-88
2020/12/27 06:49:42;;;;;;;30.05;16.63;;;;;;;-5.88;77.97;96135.81;5095133;28;20040;-88
2020/12/27 06:52:21;;;;;;;27.98;16.08;;;;;;;-5.78;77.09;96162.78;5092993;28;20016;-89
2020/12/27 06:54:48;;;;;;;26.83;16.30;;;;;;;-5.85;77.43;96156.28;5095412;28;20031;-89
2020/12/27 06:57:45;;;;;;;27.45;16.27;;;;;;;-5.97;77.04;96150.44;5112749;28;20020;-89
2020/12/27 07:00:37;;;;;;;28.27;15.90;;;;;;;-6.20;77.67;96114.19;5076866;28;20302;-88
2020/12/27 07:03:09;;;;;;;28.40;16.95;;;;;;;-5.90;76.98;96143.34;5072692;28;20037;-89
2020/12/27 07:05:36;;;;;;;23.92;15.68;;;;;;;-6.19;77.26;96101.72;5075432;28;20327;-88
2020/12/27 07:08:07;;;;;;;26.60;15.68;;;;;;;-6.38;78.60;96066.34;5075498;28;20044;-89
2020/12/27 07:10:35;;;;;;;24.75;15.48;;;;;;;-6.02;78.61;96137.50;5076707;28;20035;-89
2020/12/27 07:13:03;;;;;;;26.58;16.40;;;;;;;-6.46;79.38;96042.78;5092278;28;20305;-89
2020/12/27 07:15:29;;;;;;;30.48;18.15;;;;;;;-6.13;79.56;96087.84;5075387;28;20063;-89
2020/12/27 07:17:55;;;;;;;27.85;16.48;;;;;;;-6.35;77.49;96060.31;5076548;28;20056;-88
2020/12/27 07:20:22;;;;;;;25.50;15.88;;;;;;;-6.38;78.69;96063.69;5076736;28;20055;-89
2020/12/27 07:22:54;;;;;;;24.02;15.60;;;;;;;-6.17;77.76;96087.06;5075371;28;20024;-88
2020/12/27 07:25:22;;;;;;;28.15;16.85;;;;;;;-6.17;79.18;96071.19;5076456;28;20048;-89
2020/12/27 07:27:48;;;;;;;25.95;15.15;;;;;;;-5.89;78.51;96128.22;5075286;28;20038;-89
2020/12/27 07:30:15;;;;;;;21.42;13.98;;;;;;;-5.71;78.22;96125.84;5075257;28;20111;-87
2020/12/27 07:32:44;;;;;;;17.75;11.68;;;;;;;-6.26;77.85;96030.25;5075231;28;20044;-89
2020/12/27 07:35:10;;;;;;;15.43;10.68;;;;;;;-5.56;78.20;96125.66;5076133;28;20028;-89
2020/12/27 07:37:37;;;;;;;14.60;10.07;;;;;;;-5.90;77.23;96065.88;5103413;28;20426;-88
2020/12/27 07:40:05;;;;;;;17.38;10.57;;;;;;;-5.78;77.83;96075.47;5094908;28;20039;-89
2020/12/27 07:42:33;;;;;;;25.85;18.45;;;;;;;-5.36;78.44;96123.66;5093768;28;20021;-89
2020/12/27 07:45:06;;;;;;;20.42;14.05;;;;;;;-5.67;79.20;96079.78;5088453;28;20024;-88
2020/12/27 07:47:41;;;;;;;46.35;25.98;;;;;;;-5.13;79.50;96131.50;5094160;28;20043;-88
2020/12/27 07:50:13;;;;;;;54.95;29.77;;;;;;;-5.50;78.11;96094.34;5075072;28;20036;-88
2020/12/27 07:52:46;;;;;;;45.22;27.67;;;;;;;-5.41;78.50;96068.38;5084147;28;20016;-88
2020/12/27 07:55:20;;;;;;;45.67;27.30;;;;;;;-5.05;77.81;96084.69;5096330;28;20028;-88
2020/12/27 07:57:46;;;;;;;41.88;23.23;;;;;;;-4.36;82.05;96108.06;5095199;28;20103;-89
2020/12/27 08:00:11;;;;;;;51.67;30.35;;;;;;;-4.45;77.54;96078.44;5095246;28;20165;-88
2020/12/27 08:02:41;;;;;;;47.05;26.63;;;;;;;-4.80;75.99;96069.78;5095200;28;20518;-84
2020/12/27 08:05:12;;;;;;;38.38;24.08;;;;;;;-5.06;74.90;96043.38;5100422;28;20122;-86
2020/12/27 08:07:38;;;;;;;41.30;25.02;;;;;;;-4.70;74.19;96117.97;5096356;28;20024;-86
2020/12/27 08:10:24;;;;;;;31.90;21.25;;;;;;;-4.47;76.74;96123.88;5098541;28;20023;-85
2020/12/27 08:12:59;;;;;;;34.38;21.67;;;;;;;-4.50;76.39;96106.78;5079642;28;20115;-86
2020/12/27 08:15:27;;;;;;;27.95;18.63;;;;;;;-4.46;75.91;96128.06;5097886;28;20028;-86
2020/12/27 08:18:04;;;;;;;29.55;19.17;;;;;;;-4.82;76.07;96095.88;5078254;28;20293;-86
2020/12/27 08:20:32;;;;;;;27.35;17.67;;;;;;;-4.91;76.31;96090.09;5083441;28;20111;-86
2020/12/27 08:23:01;;;;;;;25.85;17.55;;;;;;;-4.57;75.63;96124.53;5089598;28;20189;-86
2020/12/27 08:25:30;;;;;;;26.52;17.63;;;;;;;-4.90;75.80;96089.00;5098356;28;20031;-85
2020/12/27 08:27:57;;;;;;;31.90;23.30;;;;;;;-5.13;76.80;96056.56;5097365;28;20055;-86
2020/12/27 08:30:24;;;;;;;24.98;15.95;;;;;;;-4.97;76.45;96051.81;5098227;28;20024;-86
2020/12/27 08:33:04;;;;;;;19.92;13.80;;;;;;;-5.06;76.86;96030.16;5098273;28;20020;-86
2020/12/27 08:35:30;;;;;;;19.60;14.07;;;;;;;-4.85;77.37;96021.63;5077860;28;20053;-85
2020/12/27 08:38:09;;;;;;;23.27;13.15;;;;;;;-4.84;75.68;96025.84;5083924;28;20328;-85
2020/12/27 08:40:39;;;;;;;19.77;13.23;;;;;;;-4.34;75.92;96087.22;5098163;28;20416;-86
2020/12/27 08:43:14;;;;;;;20.45;13.07;;;;;;;-4.39;76.53;96051.19;5099663;28;20077;-85
2020/12/27 08:45:42;;;;;;;16.85;12.60;;;;;;;-4.69;76.26;95990.34;5107685;28;20066;-87
2020/12/27 08:48:29;;;;;;;20.92;13.15;;;;;;;-4.41;75.67;96047.41;5120622;28;20023;-86
2020/12/27 08:50:56;;;;;;;18.63;11.25;;;;;;;-4.20;76.56;96076.75;5118766;28;20027;-87
2020/12/27 08:53:22;;;;;;;18.23;12.35;;;;;;;-4.79;74.69;95999.75;5120010;28;20108;-86
2020/12/27 08:55:48;;;;;;;16.27;11.93;;;;;;;-4.70;76.44;96014.56;5118961;28;20047;-86
2020/12/27 08:58:14;;;;;;;17.80;12.15;;;;;;;-5.21;75.25;95933.91;5106689;28;20020;-88
2020/12/27 09:00:39;;;;;;;20.80;11.75;;;;;;;-4.17;76.62;96062.72;5098993;28;20016;-87
2020/12/27 09:03:06;;;;;;;20.67;12.70;;;;;;;-4.07;75.97;96061.28;5100956;28;20024;-87
2020/12/27 09:05:34;;;;;;;20.45;13.52;;;;;;;-4.04;75.91;96063.22;5116201;28;20024;-86
2020/12/27 09:08:00;;;;;;;16.85;11.50;;;;;;;-4.36;76.69;95988.72;5099384;28;20694;-87
2020/12/27 09:10:30;;;;;;;17.50;10.88;;;;;;;-4.25;76.81;96002.81;5098785;28;20089;-86
2020/12/27 09:13:05;;;;;;;15.75;12.73;;;;;;;-3.97;75.41;96053.38;5098939;28;20024;-86
2020/12/27 09:15:33;;;;;;;15.18;10.48;;;;;;;-3.94;76.40;96043.94;5100525;28;20078;-86
2020/12/27 09:18:06;;;;;;;15.90;10.90;;;;;;;-3.94;76.53;96051.91;5097939;28;20031;-86
2020/12/27 09:20:37;;;;;;;16.85;11.40;;;;;;;-4.26;75.73;95985.34;5097456;28;20034;-86
2020/12/27 09:23:13;;;;;;;17.08;11.93;;;;;;;-3.85;75.95;96039.03;5097343;28;20020;-86
2020/12/27 09:25:39;;;;;;;17.17;13.55;;;;;;;-4.18;75.68;95978.97;5097372;28;20324;-88
2020/12/27 09:28:18;;;;;;;17.35;11.80;;;;;;;-4.02;76.78;95991.94;5094949;28;20096;-87
2020/12/27 09:31:05;;;;;;;17.77;11.32;;;;;;;-4.10;77.06;95950.56;5099114;28;20020;-85
2020/12/27 09:33:36;;;;;;;17.35;10.27;;;;;;;-3.51;76.48;96020.25;5096906;28;20374;-86
2020/12/27 09:36:02;;;;;;;;;;;;;;;-3.45;76.38;96013.44;5088872;28;20048;-86
2020/12/27 09:38:32;;;;;;;16.83;10.32;;;;;;;-3.74;77.16;95923.03;5077866;28;19908;-86
2020/12/27 09:41:17;;;;;;;16.63;11.50;;;;;;;-3.07;76.06;95992.66;5097621;28;20032;-87
2020/12/27 09:43:53;;;;;;;17.35;10.77;;;;;;;-3.08;75.22;95981.28;5098690;28;20028;-87
2020/12/27 09:46:46;;;;;;;18.63;12.02;;;;;;;-3.11;74.51;95974.06;5096299;28;20052;-86
2020/12/27 09:49:21;;;;;;;18.23;12.05;;;;;;;-3.51;74.05;95898.84;5096392;28;20020;-86
2020/12/27 09:52:03;;;;;;;19.15;11.32;;;;;;;-3.54;75.28;95896.94;5084691;28;20024;-86
2020/12/27 09:54:33;;;;;;;20.05;12.50;;;;;;;-3.48;74.70;95876.06;5097279;28;20036;-87
2020/12/27 09:57:24;;;;;;;25.93;14.23;;;;;;;-2.96;75.28;95945.59;5096709;28;20059;-88
2020/12/27 09:59:51;;;;;;;24.20;14.63;;;;;;;-2.87;75.13;95943.34;5080774;28;20025;-87
2020/12/27 10:02:18;;;;;;;23.13;14.18;;;;;;;-2.79;75.56;95930.78;5077937;28;20059;-87
2020/12/27 10:04:44;;;;;;;19.08;12.13;;;;;;;-2.76;72.86;95927.38;5079728;28;20062;-86
2020/12/27 10:07:10;;;;;;;14.90;10.20;;;;;;;-2.84;71.78;95934.59;5096375;28;20169;-86
2020/12/27 10:09:35;;;;;;;14.77;10.15;;;;;;;-3.05;73.00;95903.44;5094524;28;20051;-87
2020/12/27 10:12:01;;;;;;;16.73;10.95;;;;;;;-3.04;74.57;95867.75;5077185;28;20051;-86
2020/12/27 10:14:27;;;;;;;20.48;12.70;;;;;;;-2.75;74.23;95900.41;5094963;28;20023;-87
2020/12/27 10:16:53;;;;;;;21.15;13.15;;;;;;;-2.85;75.41;95860.53;5094849;28;20031;-87
2020/12/27 10:19:18;;;;;;;22.67;14.57;;;;;;;-2.65;75.69;95877.59;5096364;28;20362;-86
2020/12/27 10:21:47;;;;;;;24.95;15.82;;;;;;;-2.95;74.66;95838.13;5096815;28;20056;-86
2020/12/27 10:24:13;;;;;;;28.48;16.83;;;;;;;-2.89;75.90;95839.25;5096453;28;20044;-87
2020/12/27 10:26:39;;;;;;;23.92;15.70;;;;;;;-2.92;74.39;95837.38;5096608;28;20324;-88
2020/12/27 10:29:04;;;;;;;22.27;14.73;;;;;;;-3.19;74.16;95775.91;5106599;28;20012;-86
2020/12/27 10:31:30;;;;;;;23.60;14.82;;;;;;;-3.13;74.62;95771.72;5095744;28;20483;-87
2020/12/27 10:33:57;;;;;;;22.23;14.20;;;;;;;-2.87;74.20;95783.06;5096182;28;20031;-86
2020/12/27 10:36:22;;;;;;;22.05;13.80;;;;;;;-2.45;74.20;95846.00;5095880;28;20071;-86
2020/12/27 10:38:48;;;;;;;20.70;13.55;;;;;;;-2.92;73.70;95778.91;5096161;28;20411;-86
2020/12/27 10:41:13;;;;;;;14.90;10.82;;;;;;;-2.60;71.95;95791.34;5097181;28;20024;-86
2020/12/27 10:43:39;;;;;;;17.17;11.80;;;;;;;-2.61;71.40;95787.94;5096025;28;20028;-86
2020/12/27 10:46:05;;;;;;;16.92;11.45;;;;;;;-2.98;71.79;95717.41;5097227;28;20039;-86
2020/12/27 10:48:32;;;;;;;17.40;11.75;;;;;;;-2.86;72.83;95734.84;5096110;28;20032;-86
2020/12/27 10:50:59;;;;;;;15.98;11.10;;;;;;;-2.60;72.26;95733.59;5097150;28;20372;-86
2020/12/27 10:53:24;;;;;;;17.27;11.55;;;;;;;-2.63;72.73;95719.16;5097047;28;20320;-86
2020/12/27 10:55:50;;;;;;;16.73;12.10;;;;;;;-2.32;71.38;95743.34;5095722;28;20016;-86
2020/12/27 10:58:16;;;;;;;18.38;11.60;;;;;;;-2.05;71.56;95772.09;5095922;28;20412;-86
2020/12/27 11:00:43;;;;;;;15.88;11.27;;;;;;;-2.08;72.32;95765.63;5096834;28;20076;-86
2020/12/27 11:03:08;;;;;;;16.42;11.43;;;;;;;-2.81;73.28;95649.38;5096834;28;20020;-86
2020/12/27 11:05:34;;;;;;;18.55;11.27;;;;;;;-2.22;74.02;95717.84;5095928;28;20027;-86
2020/12/27 11:07:59;;;;;;;17.20;11.80;;;;;;;-2.31;73.75;95677.59;5095677;28;20031;-86
2020/12/27 11:10:25;;;;;;;19.55;12.52;;;;;;;-2.16;72.05;95690.41;5096713;28;20032;-86
2020/12/27 11:12:50;;;;;;;18.60;12.45;;;;;;;-2.32;73.33;95633.50;5095717;28;20150;-86
2020/12/27 11:15:16;;;;;;;17.70;11.70;;;;;;;-2.11;73.02;95665.31;5096729;28;20431;-86
2020/12/27 11:17:44;;;;;;;16.73;11.60;;;;;;;-2.10;73.34;95658.81;5095704;28;20036;-86
2020/12/27 11:20:13;;;;;;;16.42;10.60;;;;;;;-1.78;73.29;95700.44;5095571;28;20119;-86
2020/12/27 11:22:40;;;;;;;17.30;10.77;;;;;;;-1.92;70.84;95653.34;5095491;28;20021;-86